Time;durP1;ratioP1;P1;durP2;ratioP2;P2;SDS_P1;SDS_P2;PMS_P1;PMS_P2;Temp;Humidity;BMP_temperature;BMP_pressure;BME280_temperature;BME280_humidity;BME280_pressure;Samples;Min_cycle;Max_cycle;Signal;HPM_P1;HPM_P2
2023/09/17 00:01:32;;;;;;;29.40;23.30;;;;;;;21.80;79.72;100330.05;109686;1254;74445;-55
2023/09/17 00:04:00;;;;;;;27.40;23.00;;;;;;;21.94;78.73;100333.43;109657;1251;67305;-55
2023/09/17 00:06:28;;;;;;;28.20;22.40;;;;;;;21.94;78.71;100331.76;109684;1251;72643;-55
2023/09/17 00:08:54;;;;;;;33.10;22.90;;;;;;;21.83;79.32;100332.33;109694;1251;61940;-55
2023/09/17 00:11:21;;;;;;;28.20;21.40;;;;;;;21.85;79.22;100328.19;109709;1253;60017;-54
2023/09/17 00:13:47;;;;;;;32.20;23.60;;;;;;;21.79;79.63;100328.89;109273;1252;73562;-55
2023/09/17 00:16:14;;;;;;;29.50;22.20;;;;;;;21.85;79.34;100328.41;109486;1253;67682;-55
2023/09/17 00:18:41;;;;;;;25.00;22.10;;;;;;;21.93;78.72;100328.80;109369;1254;72503;-54
2023/09/17 00:21:08;;;;;;;31.70;24.60;;;;;;;21.83;79.27;100325.51;109324;1259;60601;-55
2023/09/17 00:23:35;;;;;;;29.60;24.70;;;;;;;21.83;79.67;100327.02;109383;1253;59982;-55
2023/09/17 00:26:01;;;;;;;33.80;24.10;;;;;;;21.84;79.61;100326.45;109381;1253;74714;-54
2023/09/17 00:28:28;;;;;;;29.80;23.40;;;;;;;21.77;80.06;100325.52;109561;1253;67132;-55
2023/09/17 00:30:55;;;;;;;30.30;23.90;;;;;;;21.86;79.79;100327.30;109526;1253;72731;-55
2023/09/17 00:33:22;;;;;;;30.10;23.50;;;;;;;21.90;79.44;100329.86;109562;1252;61776;-55
2023/09/17 00:35:52;;;;;;;30.60;23.70;;;;;;;22.04;78.81;100329.26;109543;1254;60134;-54
2023/09/17 00:38:19;;;;;;;31.20;23.50;;;;;;;22.03;78.59;100327.14;109511;1253;74432;-55
2023/09/17 00:40:46;;;;;;;27.30;23.00;;;;;;;22.13;77.96;100325.33;109514;1252;68497;-54
2023/09/17 00:43:13;;;;;;;28.90;23.70;;;;;;;22.16;77.75;100326.99;109484;1254;72515;-55
2023/09/17 00:45:41;;;;;;;30.60;23.80;;;;;;;22.17;77.82;100323.58;109468;1254;61347;-54
2023/09/17 00:48:07;;;;;;;31.40;24.10;;;;;;;22.12;77.91;100326.77;109439;1253;59065;-55
2023/09/17 00:50:34;;;;;;;27.60;23.40;;;;;;;22.17;77.45;100328.54;109468;1251;74627;-55
2023/09/17 00:53:01;;;;;;;29.90;25.10;;;;;;;22.24;76.88;100327.57;109594;1255;68947;-55
2023/09/17 00:55:29;;;;;;;29.10;23.70;;;;;;;22.31;76.56;100330.29;109543;1253;72470;-54
2023/09/17 00:57:56;;;;;;;29.60;22.70;;;;;;;22.35;76.27;100327.13;109531;1253;61690;-55
2023/09/17 01:00:24;;;;;;;32.50;24.50;;;;;;;22.32;75.98;100326.98;109580;1252;58876;-55
2023/09/17 01:02:51;;;;;;;30.60;24.00;;;;;;;22.23;76.30;100326.89;109528;1252;73844;-55
2023/09/17 01:05:18;;;;;;;29.50;24.70;;;;;;;22.21;76.55;100319.28;109574;1253;68527;-55
2023/09/17 01:07:45;;;;;;;31.30;22.80;;;;;;;22.19;76.45;100317.30;109427;1254;72683;-55
2023/09/17 01:10:13;;;;;;;34.40;24.50;;;;;;;22.30;76.08;100318.44;109601;1252;60429;-55
2023/09/17 01:12:41;;;;;;;28.50;23.50;;;;;;;22.24;76.07;100315.27;109491;1254;60827;-55
2023/09/17 01:15:09;;;;;;;30.20;23.00;;;;;;;22.26;75.79;100316.30;109573;1254;73430;-54
2023/09/17 01:17:36;;;;;;;36.20;24.30;;;;;;;22.16;76.13;100313.98;109513;1251;68938;-55
2023/09/17 01:20:24;;;;;;;30.50;24.60;;;;;;;22.04;76.97;100312.92;109427;1250;72521;-55
2023/09/17 01:22:52;;;;;;;;;;;;;;;22.02;77.24;100309.95;109679;1251;60755;-55
2023/09/17 01:25:33;;;;;;;28.30;23.40;;;;;;;22.09;77.13;100318.02;109599;1251;59813;-55
2023/09/17 01:28:01;;;;;;;30.80;25.30;;;;;;;22.05;77.10;100312.73;109488;1257;73487;-55
2023/09/17 01:30:29;;;;;;;30.50;24.90;;;;;;;22.07;76.99;100315.13;109569;1251;69968;-55
2023/09/17 01:32:55;;;;;;;29.60;23.20;;;;;;;22.07;76.62;100313.88;109728;1251;72651;-55
2023/09/17 01:35:22;;;;;;;30.70;25.10;;;;;;;22.10;76.83;100317.77;109406;1251;61790;-55
2023/09/17 01:37:52;;;;;;;31.20;24.60;;;;;;;22.08;76.93;100314.45;109576;1251;60096;-55
2023/09/17 01:40:19;;;;;;;29.70;24.00;;;;;;;22.09;76.50;100311.02;109630;1251;74673;-55
2023/09/17 01:42:46;;;;;;;28.30;24.40;;;;;;;22.17;76.24;100316.09;109305;1251;68650;-55
2023/09/17 01:45:16;;;;;;;30.10;24.40;;;;;;;22.17;75.82;100314.14;109576;1251;71430;-55
2023/09/17 01:47:44;;;;;;;32.50;26.10;;;;;;;22.08;76.38;100315.39;109426;1254;61889;-54
2023/09/17 01:50:11;;;;;;;29.10;23.80;;;;;;;22.08;76.52;100315.31;109712;1251;60167;-55
2023/09/17 01:52:39;;;;;;;36.50;26.40;;;;;;;22.11;76.21;100315.08;109432;1254;73626;-55
2023/09/17 01:55:09;;;;;;;;;;;;;;;22.16;75.98;100311.20;109703;1251;68527;-55
2023/09/17 01:57:36;;;;;;;31.80;23.40;;;;;;;22.05;76.54;100307.63;109697;1251;72505;-55
2023/09/17 02:00:14;;;;;;;32.60;24.10;;;;;;;22.01;76.36;100302.26;109599;1251;61778;-55
2023/09/17 02:02:43;;;;;;;27.50;22.90;;;;;;;22.00;76.55;100304.20;109564;1251;59153;-55
2023/09/17 02:05:10;;;;;;;25.70;21.50;;;;;;;22.08;75.82;100302.97;109754;1251;74459;-55
2023/09/17 02:07:37;;;;;;;29.50;23.70;;;;;;;22.18;74.87;100301.95;109316;1250;67852;-55
2023/09/17 02:10:05;;;;;;;28.50;24.90;;;;;;;22.06;75.50;100300.55;109084;1251;71832;-54
2023/09/17 02:12:32;;;;;;;26.90;23.00;;;;;;;22.06;75.48;100297.02;109664;1251;61685;-55
2023/09/17 02:14:59;;;;;;;29.00;24.20;;;;;;;22.10;75.36;100293.89;109708;1251;58843;-55
2023/09/17 02:17:25;;;;;;;29.00;23.00;;;;;;;22.14;74.91;100294.08;109603;1251;74466;-55
2023/09/17 02:19:52;;;;;;;30.60;23.50;;;;;;;22.16;74.79;100296.37;109488;1252;67412;-55
2023/09/17 02:22:19;;;;;;;27.00;22.20;;;;;;;22.19;74.42;100294.27;109552;1251;72508;-55
2023/09/17 02:24:46;;;;;;;28.90;24.50;;;;;;;22.14;74.76;100292.70;109708;1250;60516;-55
2023/09/17 02:27:16;;;;;;;29.30;23.50;;;;;;;22.13;74.66;100290.04;109702;1251;60280;-55
2023/09/17 02:29:43;;;;;;;33.30;24.50;;;;;;;22.10;74.59;100287.29;109462;1251;74537;-55
2023/09/17 02:32:10;;;;;;;29.40;23.90;;;;;;;22.13;74.39;100285.44;109737;1250;68509;-55
2023/09/17 02:34:38;;;;;;;27.70;22.60;;;;;;;22.13;74.29;100283.58;109710;1251;72643;-55
2023/09/17 02:37:04;;;;;;;28.30;24.20;;;;;;;22.14;74.34;100281.05;109725;1251;60489;-55
2023/09/17 02:39:31;;;;;;;29.10;23.10;;;;;;;21.97;75.04;100279.70;109749;1251;58965;-55
2023/09/17 02:41:58;;;;;;;28.30;23.70;;;;;;;22.05;74.59;100281.67;109326;1251;73143;-55
2023/09/17 02:44:25;;;;;;;27.10;22.80;;;;;;;22.01;74.66;100287.51;109780;1251;68593;-55
2023/09/17 02:46:52;;;;;;;31.40;25.30;;;;;;;21.99;74.78;100281.98;109728;1250;71279;-54
2023/09/17 02:49:21;;;;;;;28.60;23.30;;;;;;;22.01;74.65;100283.80;109587;1251;61941;-55
2023/09/17 02:51:50;;;;;;;27.60;22.30;;;;;;;21.98;74.70;100281.61;109576;1251;59358;-55
2023/09/17 02:54:16;;;;;;;;;;;;;;;21.96;74.61;100283.53;109733;1251;74374;-55
2023/09/17 02:56:43;;;;;;;30.70;22.00;;;;;;;22.03;74.13;100287.45;109754;1251;68750;-55
2023/09/17 02:59:10;;;;;;;28.00;22.30;;;;;;;22.07;73.54;100289.59;109412;1250;72411;-55
2023/09/17 03:01:37;;;;;;;25.10;21.20;;;;;;;22.02;73.62;100291.70;109683;1251;60438;-55
2023/09/17 03:04:05;;;;;;;29.20;21.50;;;;;;;22.01;73.63;100294.38;109604;1251;59045;-55
2023/09/17 03:06:33;;;;;;;;;;;;;;;22.04;72.78;100292.89;109636;1251;73697;-55
2023/09/17 03:09:00;;;;;;;35.00;22.80;;;;;;;22.00;72.41;100288.62;109265;1254;68866;-55
2023/09/17 03:11:28;;;;;;;26.70;22.10;;;;;;;22.02;72.18;100286.54;109063;1257;71184;-54
2023/09/17 03:13:58;;;;;;;22.60;18.10;;;;;;;22.03;72.06;100285.32;109022;1257;61722;-54
2023/09/17 03:16:25;;;;;;;30.20;21.50;;;;;;;21.93;71.69;100283.27;108937;1257;59009;-54
2023/09/17 03:18:51;;;;;;;25.50;18.00;;;;;;;21.87;71.60;100280.10;108920;1257;74463;-55
2023/09/17 03:21:18;;;;;;;31.60;21.90;;;;;;;21.80;71.13;100277.37;109060;1257;67568;-55
2023/09/17 03:23:45;;;;;;;27.90;20.60;;;;;;;22.10;69.59;100280.83;109064;1256;71733;-55
2023/09/17 03:26:12;;;;;;;26.70;20.10;;;;;;;22.26;68.32;100279.16;109046;1257;60635;-55
2023/09/17 03:28:39;;;;;;;22.50;19.20;;;;;;;22.21;67.68;100279.58;109021;1257;59051;-55
2023/09/17 03:31:06;;;;;;;30.40;20.40;;;;;;;22.03;68.24;100279.09;109091;1259;73849;-55
2023/09/17 03:33:33;;;;;;;25.00;19.60;;;;;;;22.01;68.15;100279.52;108942;1257;68771;-55
2023/09/17 03:36:00;;;;;;;21.80;18.90;;;;;;;21.98;67.66;100281.09;109063;1257;72480;-55
2023/09/17 03:38:27;;;;;;;26.80;19.30;;;;;;;21.88;67.79;100280.50;108906;1260;61887;-55
2023/09/17 03:40:55;;;;;;;24.10;19.30;;;;;;;21.94;67.40;100280.09;108877;1260;60154;-55
2023/09/17 03:43:22;;;;;;;26.00;20.10;;;;;;;21.85;67.44;100277.46;108903;1260;73685;-55
2023/09/17 03:45:51;;;;;;;25.60;19.20;;;;;;;21.78;67.41;100274.46;108952;1259;68594;-56
2023/09/17 03:48:18;;;;;;;23.50;19.80;;;;;;;21.78;67.25;100277.20;109146;1254;73293;-55
2023/09/17 03:50:45;;;;;;;26.70;21.00;;;;;;;21.81;67.14;100278.17;109341;1254;61629;-55
2023/09/17 03:53:12;;;;;;;23.20;18.30;;;;;;;21.70;67.66;100283.46;109255;1254;60155;-54
2023/09/17 03:55:39;;;;;;;32.00;21.10;;;;;;;21.52;68.71;100283.23;109366;1254;74556;-55
2023/09/17 03:58:05;;;;;;;27.70;21.90;;;;;;;21.47;69.06;100283.42;109328;1254;68398;-56
2023/09/17 04:00:37;;;;;;;28.00;20.80;;;;;;;21.47;69.16;100285.21;109117;1254;72817;-55
2023/09/17 04:03:06;;;;;;;25.30;21.40;;;;;;;21.45;69.42;100283.08;109340;1254;61672;-55
2023/09/17 04:05:34;;;;;;;27.50;20.90;;;;;;;21.60;68.59;100289.73;108963;1254;60168;-55
2023/09/17 04:08:01;;;;;;;28.50;21.40;;;;;;;21.73;67.90;100286.66;109327;1254;73637;-55
2023/09/17 04:10:28;;;;;;;31.20;22.90;;;;;;;21.57;68.29;100288.86;109584;1250;67378;-55
2023/09/17 04:12:54;;;;;;;26.00;21.00;;;;;;;21.42;69.18;100286.29;109641;1251;71280;-57
2023/09/17 04:15:21;;;;;;;29.40;22.40;;;;;;;21.39;69.46;100282.92;109496;1252;61776;-54
2023/09/17 04:17:52;;;;;;;28.90;22.80;;;;;;;21.39;69.52;100285.34;109376;1252;60014;-55
2023/09/17 04:20:19;;;;;;;29.90;24.20;;;;;;;21.24;70.44;100283.90;109539;1252;74693;-55
2023/09/17 04:22:48;;;;;;;30.00;22.90;;;;;;;21.26;70.28;100280.70;109596;1251;68711;-55
2023/09/17 04:25:16;;;;;;;31.00;24.60;;;;;;;21.35;70.33;100279.17;109543;1251;72467;-54
2023/09/17 04:27:44;;;;;;;25.60;21.80;;;;;;;21.56;69.14;100279.09;109624;1251;60517;-55
2023/09/17 04:30:14;;;;;;;31.50;24.70;;;;;;;21.77;68.11;100274.54;109532;1253;113471;-56
2023/09/17 04:32:41;;;;;;;34.20;24.00;;;;;;;21.98;66.50;100272.55;109617;1251;73467;-54
2023/09/17 04:35:10;;;;;;;26.60;21.60;;;;;;;22.02;65.92;100275.96;109559;1251;68561;-55
2023/09/17 04:37:39;;;;;;;29.40;21.40;;;;;;;22.00;65.65;100273.15;109408;1251;72420;-55
2023/09/17 04:40:11;;;;;;;36.50;21.90;;;;;;;22.03;65.29;100270.50;109332;1254;61804;-55
2023/09/17 04:42:40;;;;;;;26.80;18.50;;;;;;;22.27;64.30;100268.48;109197;1254;59016;-55
2023/09/17 04:45:09;;;;;;;27.70;20.60;;;;;;;22.46;62.96;100271.64;109263;1254;73300;-55
2023/09/17 04:47:38;;;;;;;24.30;18.30;;;;;;;22.53;62.16;100270.56;109316;1254;67525;-54
2023/09/17 04:50:09;;;;;;;28.20;19.20;;;;;;;22.28;63.16;100269.64;109028;1259;72475;-54
2023/09/17 04:52:36;;;;;;;28.90;20.00;;;;;;;22.49;62.65;100267.88;108943;1259;60724;-54
2023/09/17 04:55:05;;;;;;;21.70;19.40;;;;;;;22.69;61.14;100271.59;109036;1259;59113;-55
2023/09/17 04:57:32;;;;;;;28.40;18.10;;;;;;;22.65;61.21;100270.06;109035;1259;73486;-55
2023/09/17 05:00:10;;;;;;;21.10;18.30;;;;;;;22.97;60.41;100274.79;108882;1259;67742;-55
2023/09/17 05:02:41;;;;;;;22.40;18.50;;;;;;;22.92;59.16;100273.90;108967;1259;72687;-55
2023/09/17 05:05:09;;;;;;;33.70;19.60;;;;;;;22.86;59.85;100277.78;108979;1259;60610;-54
2023/09/17 05:07:38;;;;;;;26.80;19.40;;;;;;;23.02;58.92;100277.99;108986;1259;58998;-55
2023/09/17 05:10:06;;;;;;;23.00;17.80;;;;;;;23.43;58.00;100280.58;109042;1259;74738;-56
2023/09/17 05:12:34;;;;;;;19.00;15.50;;;;;;;23.93;54.95;100283.77;109236;1255;69126;-55
2023/09/17 05:15:03;;;;;;;21.70;16.30;;;;;;;24.03;54.28;100283.09;109258;1255;72881;-56
2023/09/17 05:17:30;;;;;;;20.80;15.60;;;;;;;23.94;53.79;100286.30;109164;1255;62222;-57
2023/09/17 05:19:56;;;;;;;25.70;15.30;;;;;;;24.23;53.17;100289.98;109271;1256;59225;-56
2023/09/17 05:22:23;;;;;;;19.30;16.10;;;;;;;24.37;52.11;100290.73;109636;1250;73027;-56
2023/09/17 05:24:50;;;;;;;17.70;15.00;;;;;;;24.46;51.03;100288.68;109605;1251;67742;-55
2023/09/17 05:27:17;;;;;;;19.60;14.90;;;;;;;24.35;50.99;100292.84;109636;1251;71786;-55
2023/09/17 05:29:45;;;;;;;17.80;13.40;;;;;;;24.30;50.41;100289.50;109611;1251;60575;-55
2023/09/17 05:32:12;;;;;;;18.20;14.50;;;;;;;24.28;50.31;100289.58;109703;1250;58915;-54
2023/09/17 05:34:39;;;;;;;24.70;14.40;;;;;;;24.57;49.48;100287.77;109618;1250;73090;-55
2023/09/17 05:37:06;;;;;;;15.20;13.50;;;;;;;24.77;48.92;100290.20;109617;1250;68468;-56
2023/09/17 05:39:32;;;;;;;18.20;12.80;;;;;;;25.07;48.18;100293.31;109747;1250;72338;-55
2023/09/17 05:41:59;;;;;;;13.60;11.30;;;;;;;25.03;47.16;100296.19;109241;1256;60803;-54
2023/09/17 05:44:26;;;;;;;13.90;11.20;;;;;;;25.04;47.01;100298.12;109265;1256;58919;-55
2023/09/17 05:46:53;;;;;;;18.10;12.10;;;;;;;25.17;45.79;100296.92;109241;1256;74990;-55
2023/09/17 05:49:20;;;;;;;27.30;13.20;;;;;;;25.16;45.95;100298.15;109243;1255;68624;-57
2023/09/17 05:51:47;;;;;;;19.80;11.90;;;;;;;25.37;45.54;100302.40;109089;1255;72394;-55
2023/09/17 05:54:15;;;;;;;15.90;13.00;;;;;;;25.54;45.11;100305.54;109251;1255;59129;-55
2023/09/17 05:56:41;;;;;;;19.40;12.30;;;;;;;25.71;44.55;100303.80;109203;1256;59025;-54
2023/09/17 05:59:08;;;;;;;18.20;11.50;;;;;;;25.55;44.17;100308.08;109270;1255;74569;-55
2023/09/17 06:01:36;;;;;;;14.10;11.40;;;;;;;25.46;44.13;100307.67;109147;1257;68816;-55
2023/09/17 06:04:04;;;;;;;15.40;11.40;;;;;;;25.46;43.79;100307.69;109258;1255;71291;-55
2023/09/17 06:06:31;;;;;;;13.00;11.30;;;;;;;25.36;43.83;100309.91;109224;1255;60543;-55
2023/09/17 06:08:58;;;;;;;13.80;11.60;;;;;;;25.34;44.06;100317.45;109052;1255;60282;-55
2023/09/17 06:11:26;;;;;;;14.40;11.20;;;;;;;25.26;43.89;100316.74;109137;1256;74532;-55
2023/09/17 06:13:53;;;;;;;15.20;11.50;;;;;;;25.41;43.66;100318.27;109483;1252;68487;-55
2023/09/17 06:16:20;;;;;;;13.50;11.20;;;;;;;25.51;43.86;100316.49;109562;1251;72713;-56
2023/09/17 06:18:47;;;;;;;17.60;11.80;;;;;;;25.10;43.98;100317.20;109515;1252;60044;-54
2023/09/17 06:21:14;;;;;;;11.10;9.30;;;;;;;25.30;43.45;100316.97;109385;1252;59019;-55
2023/09/17 06:23:42;;;;;;;13.10;10.60;;;;;;;25.56;42.80;100317.38;109426;1251;74486;-55
2023/09/17 06:26:09;;;;;;;15.10;9.40;;;;;;;25.45;43.17;100320.74;109682;1250;68531;-55
2023/09/17 06:28:37;;;;;;;;;;;;;;;25.84;42.81;100324.64;109788;1250;72753;-56
2023/09/17 06:31:03;;;;;;;13.30;8.70;;;;;;;26.44;41.77;100322.10;109677;1250;60210;-56
2023/09/17 06:33:30;;;;;;;11.10;9.20;;;;;;;26.68;41.36;100321.10;109670;1250;59472;-55
2023/09/17 06:35:57;;;;;;;18.20;10.40;;;;;;;26.90;40.97;100324.39;109539;1250;74376;-56
2023/09/17 06:38:24;;;;;;;10.50;8.80;;;;;;;27.12;40.57;100322.11;109728;1250;67199;-55
2023/09/17 06:40:51;;;;;;;20.10;10.40;;;;;;;26.70;40.68;100314.95;109655;1251;72449;-55
2023/09/17 06:43:18;;;;;;;11.50;8.80;;;;;;;27.11;40.28;100326.15;109787;1250;60043;-55
2023/09/17 06:45:45;;;;;;;13.00;8.90;;;;;;;27.06;39.75;100324.90;109753;1250;58898;-54
2023/09/17 06:48:11;;;;;;;29.20;8.80;;;;;;;27.29;39.68;100324.05;109726;1250;74706;-55
2023/09/17 06:50:38;;;;;;;14.20;7.80;;;;;;;27.77;39.05;100324.83;109463;1250;68451;-55
2023/09/17 06:53:05;;;;;;;8.60;7.70;;;;;;;27.57;38.40;100324.19;109689;1250;72480;-56
2023/09/17 06:55:33;;;;;;;12.20;8.60;;;;;;;26.96;38.88;100325.52;109705;1250;59600;-56
2023/09/17 06:58:00;;;;;;;20.50;9.40;;;;;;;27.31;39.20;100323.92;109639;1251;58899;-56
2023/09/17 07:00:27;;;;;;;9.20;7.70;;;;;;;27.49;38.74;100326.91;109587;1250;73787;-55
2023/09/17 07:02:54;;;;;;;11.70;8.20;;;;;;;27.40;38.38;100326.04;109529;1250;67309;-55
2023/09/17 07:05:21;;;;;;;13.70;8.20;;;;;;;27.79;38.56;100328.89;109772;1250;72777;-56
2023/09/17 07:07:48;;;;;;;15.10;7.70;;;;;;;27.99;37.99;100332.06;109742;1250;59567;-56
2023/09/17 07:10:15;;;;;;;10.00;7.70;;;;;;;28.19;37.68;100333.48;109718;1250;58878;-55
2023/09/17 07:12:43;;;;;;;8.80;7.50;;;;;;;28.18;37.07;100329.27;109429;1253;74650;-57
2023/09/17 07:15:11;;;;;;;10.90;8.50;;;;;;;28.44;36.78;100327.50;109570;1251;68575;-56
2023/09/17 07:17:39;;;;;;;10.80;7.30;;;;;;;28.70;36.30;100325.31;109623;1252;72656;-56
2023/09/17 07:20:06;;;;;;;;;;;;;;;28.65;36.16;100320.55;109557;1252;60026;-56
2023/09/17 07:22:33;;;;;;;9.80;7.30;;;;;;;28.99;36.20;100328.60;109436;1251;59874;-55
2023/09/17 07:24:59;;;;;;;6.70;6.00;;;;;;;29.22;35.19;100334.67;109540;1251;74490;-56
2023/09/17 07:27:28;;;;;;;7.70;6.90;;;;;;;29.09;34.99;100333.20;109704;1250;67272;-56
2023/09/17 07:29:56;;;;;;;11.50;6.60;;;;;;;29.35;35.15;100336.45;109691;1250;71710;-56
2023/09/17 07:32:27;;;;;;;13.40;7.00;;;;;;;29.67;34.62;100338.74;109723;1250;59006;-54
2023/09/17 07:34:54;;;;;;;10.00;5.70;;;;;;;29.57;34.29;100337.10;109771;1250;59030;-54
2023/09/17 07:37:21;;;;;;;12.00;6.70;;;;;;;29.27;33.81;100334.08;109742;1250;73152;-55
2023/09/17 07:39:55;;;;;;;9.50;5.80;;;;;;;29.38;34.10;100337.09;109720;1251;67532;-54
2023/09/17 07:42:22;;;;;;;9.00;5.40;;;;;;;29.02;34.12;100333.17;109705;1250;72670;-54
2023/09/17 07:44:49;;;;;;;9.30;6.10;;;;;;;29.28;33.38;100337.91;109736;1250;58906;-53
2023/09/17 07:47:17;;;;;;;6.80;6.00;;;;;;;29.54;33.49;100335.84;109726;1250;58986;-54
2023/09/17 07:49:43;;;;;;;7.70;6.30;;;;;;;29.82;32.90;100341.27;109723;1250;74445;-54
2023/09/17 07:52:11;;;;;;;10.20;5.70;;;;;;;29.99;32.61;100340.15;109763;1250;68464;-54
2023/09/17 07:54:39;;;;;;;6.80;5.90;;;;;;;30.17;32.55;100334.90;109688;1250;72443;-55
2023/09/17 07:57:06;;;;;;;7.70;5.60;;;;;;;29.97;32.24;100339.33;109681;1250;58943;-55
2023/09/17 07:59:33;;;;;;;7.10;5.90;;;;;;;29.71;32.46;100341.74;109732;1251;60028;-55
2023/09/17 08:01:59;;;;;;;6.00;5.40;;;;;;;29.58;32.18;100339.48;109702;1250;73428;-55
2023/09/17 08:04:26;;;;;;;15.40;6.00;;;;;;;29.63;31.80;100336.66;109671;1250;67170;-54
2023/09/17 08:06:53;;;;;;;7.30;5.60;;;;;;;29.13;32.37;100336.05;109700;1250;71571;-55
2023/09/17 08:09:20;;;;;;;7.90;5.80;;;;;;;29.53;32.07;100344.19;109422;1251;60034;-55
2023/09/17 08:11:46;;;;;;;5.50;4.90;;;;;;;29.87;31.58;100336.52;109695;1250;60167;-56
2023/09/17 08:14:14;;;;;;;7.40;5.70;;;;;;;29.44;31.50;100333.58;109542;1252;73799;-57
2023/09/17 08:16:40;;;;;;;6.30;5.60;;;;;;;29.45;31.92;100332.71;109629;1250;68190;-54
2023/09/17 08:19:07;;;;;;;16.30;6.10;;;;;;;29.83;31.26;100333.44;109545;1252;72608;-54
2023/09/17 08:21:34;;;;;;;7.10;4.50;;;;;;;29.92;31.01;100333.31;109520;1252;60087;-53
2023/09/17 08:24:01;;;;;;;10.10;6.00;;;;;;;29.97;30.79;100333.23;109571;1252;58882;-53
2023/09/17 08:26:28;;;;;;;5.10;4.70;;;;;;;30.20;30.63;100327.36;109470;1252;74652;-54
2023/09/17 08:29:00;;;;;;;7.80;5.30;;;;;;;30.01;30.29;100323.91;109553;1251;67237;-54
2023/09/17 08:31:28;;;;;;;12.80;5.50;;;;;;;30.18;30.48;100322.17;109569;1252;72492;-55
2023/09/17 08:33:54;;;;;;;6.50;4.40;;;;;;;30.41;30.21;100320.70;109372;1252;60253;-54
2023/09/17 08:36:21;;;;;;;8.30;4.80;;;;;;;30.38;30.24;100320.31;109559;1252;60262;-56
2023/09/17 08:38:49;;;;;;;6.10;4.40;;;;;;;30.15;30.12;100321.87;109564;1252;74702;-54
2023/09/17 08:41:19;;;;;;;5.60;4.40;;;;;;;30.31;29.27;100319.96;109583;1252;68486;-53
2023/09/17 08:43:46;;;;;;;6.40;5.10;;;;;;;30.43;29.72;100320.96;109397;1252;70415;-54
2023/09/17 08:46:13;;;;;;;12.90;5.40;;;;;;;30.68;29.20;100319.55;109568;1252;59007;-54
2023/09/17 08:48:40;;;;;;;5.50;4.30;;;;;;;30.60;28.96;100316.57;109513;1252;60332;-54
2023/09/17 08:51:07;;;;;;;6.90;5.20;;;;;;;30.61;29.08;100317.00;109540;1252;74449;-54
2023/09/17 08:54:02;;;;;;;5.40;4.40;;;;;;;30.70;29.12;100318.33;109515;1252;68825;-56
2023/09/17 08:56:29;;;;;;;15.50;4.80;;;;;;;30.34;29.24;100311.38;108962;1257;71311;-53
2023/09/17 08:59:00;;;;;;;11.50;6.10;;;;;;;30.65;29.40;100316.90;108952;1261;58927;-53
2023/09/17 09:01:27;;;;;;;5.10;4.30;;;;;;;30.98;28.65;100315.70;108936;1261;59151;-55
2023/09/17 09:03:54;;;;;;;12.10;4.70;;;;;;;31.01;28.77;100315.17;108914;1260;74984;-57
2023/09/17 09:06:21;;;;;;;;;;;;;;;31.44;28.80;100317.52;108976;1259;59365;-55
2023/09/17 09:08:49;;;;;;;11.20;4.80;;;;;;;31.60;28.09;100319.01;108957;1259;71310;-54
2023/09/17 09:11:16;;;;;;;6.60;4.30;;;;;;;31.48;28.14;100317.30;108963;1259;60193;-55
2023/09/17 09:13:42;;;;;;;6.60;5.20;;;;;;;30.83;28.73;100313.55;108914;1260;60287;-55
2023/09/17 09:16:09;;;;;;;13.40;5.20;;;;;;;31.40;28.01;100313.44;108897;1260;74544;-55
2023/09/17 09:18:36;;;;;;;7.60;5.10;;;;;;;31.14;28.11;100309.10;108961;1259;67662;-55
2023/09/17 09:21:03;;;;;;;5.20;4.40;;;;;;;30.72;28.46;100306.41;108892;1259;72503;-55
2023/09/17 09:23:29;;;;;;;8.90;4.00;;;;;;;31.30;28.01;100305.06;108868;1260;60358;-55
2023/09/17 09:25:56;;;;;;;13.90;4.80;;;;;;;31.54;28.14;100307.50;108932;1259;60036;-54
2023/09/17 09:28:23;;;;;;;5.90;4.00;;;;;;;31.63;27.47;100309.99;108949;1260;65884;-56
2023/09/17 09:30:49;;;;;;;9.90;4.40;;;;;;;31.43;27.60;100311.33;108959;1257;70011;-55
2023/09/17 09:33:20;;;;;;;9.00;4.70;;;;;;;30.85;27.83;100308.11;109234;1252;72337;-55
2023/09/17 09:35:47;;;;;;;7.20;4.20;;;;;;;30.86;28.13;100305.77;109539;1252;60164;-55
2023/09/17 09:38:14;;;;;;;7.70;5.10;;;;;;;31.38;27.52;100309.52;109369;1256;60048;-56
2023/09/17 09:40:42;;;;;;;7.30;4.00;;;;;;;31.92;26.71;100306.20;109556;1252;65958;-55
2023/09/17 09:43:30;;;;;;;5.40;4.20;;;;;;;31.89;27.13;100302.52;109550;1253;58991;-56
2023/09/17 09:46:04;;;;;;;5.20;4.40;;;;;;;31.50;27.27;100299.52;109212;1253;63843;-55
2023/09/17 09:48:31;;;;;;;12.20;4.30;;;;;;;31.48;27.24;100299.98;109555;1252;58938;-55
2023/09/17 09:50:58;;;;;;;10.20;4.40;;;;;;;31.21;27.63;100301.89;109545;1256;58950;-55
2023/09/17 09:53:24;;;;;;;11.70;5.10;;;;;;;31.56;26.58;100299.08;109548;1252;64552;-55
2023/09/17 09:55:51;;;;;;;11.20;4.70;;;;;;;31.47;26.61;100297.89;109559;1252;68609;-56
2023/09/17 09:58:18;;;;;;;4.40;4.00;;;;;;;32.03;26.31;100301.23;109504;1252;72469;-56
2023/09/17 10:00:45;;;;;;;7.00;4.00;;;;;;;32.36;26.32;100299.66;109168;1257;58970;-55
2023/09/17 10:03:13;;;;;;;6.80;4.30;;;;;;;32.47;26.20;100298.72;109367;1253;59091;-55
2023/09/17 10:05:40;;;;;;;9.60;4.50;;;;;;;32.23;26.22;100296.83;109388;1252;64547;-55
2023/09/17 10:08:08;;;;;;;10.30;5.00;;;;;;;32.19;26.16;100301.23;109530;1252;68887;-55
2023/09/17 10:10:38;;;;;;;5.30;4.30;;;;;;;32.33;25.60;100302.09;109167;1253;72583;-54
2023/09/17 10:13:06;;;;;;;4.50;4.10;;;;;;;33.06;24.97;100301.85;109618;1252;58936;-55
2023/09/17 10:15:34;;;;;;;6.50;3.90;;;;;;;33.30;24.90;100300.64;109623;1252;58889;-55
2023/09/17 10:18:01;;;;;;;6.30;3.90;;;;;;;33.38;24.90;100301.23;109591;1251;65800;-55
2023/09/17 10:20:28;;;;;;;9.90;4.00;;;;;;;33.69;24.16;100297.56;109569;1251;59387;-55
2023/09/17 10:22:55;;;;;;;6.70;4.30;;;;;;;33.74;24.13;100293.91;109655;1250;63800;-55
2023/09/17 10:25:22;;;;;;;5.50;4.70;;;;;;;33.37;24.50;100285.09;109626;1251;59002;-55
2023/09/17 10:27:49;;;;;;;8.40;4.10;;;;;;;32.85;24.85;100281.94;109720;1250;58993;-56
2023/09/17 10:30:17;;;;;;;6.50;3.80;;;;;;;32.64;25.13;100279.26;109622;1250;65973;-56
2023/09/17 10:32:47;;;;;;;5.90;3.90;;;;;;;31.71;25.81;100273.40;109739;1251;59118;-55
2023/09/17 10:35:16;;;;;;;4.50;4.10;;;;;;;31.25;26.25;100275.82;109718;1250;71580;-55
2023/09/17 10:37:43;;;;;;;6.80;4.50;;;;;;;30.81;26.57;100269.58;109707;1251;59035;-55
2023/09/17 10:40:11;;;;;;;10.50;4.30;;;;;;;31.14;26.35;100266.96;109722;1250;59281;-54
2023/09/17 10:42:38;;;;;;;5.70;4.10;;;;;;;31.89;25.81;100269.75;109543;1251;74649;-54
2023/09/17 10:45:10;;;;;;;5.80;3.90;;;;;;;32.26;25.19;100270.27;109716;1251;59880;-54
2023/09/17 10:47:40;;;;;;;7.40;4.30;;;;;;;31.49;26.08;100263.60;109717;1251;63934;-54
2023/09/17 10:50:08;;;;;;;13.20;5.90;;;;;;;31.33;26.59;100258.27;109381;1251;60444;-54
2023/09/17 10:52:36;;;;;;;9.00;4.50;;;;;;;30.99;26.87;100262.40;109654;1250;58965;-54
2023/09/17 10:55:07;;;;;;;8.20;4.80;;;;;;;31.33;26.45;100261.18;109466;1251;74392;-55
2023/09/17 10:57:37;;;;;;;6.90;4.40;;;;;;;32.01;25.90;100263.70;109721;1251;59946;-55
2023/09/17 11:00:07;;;;;;;4.60;4.10;;;;;;;32.56;25.70;100267.60;109299;1250;62778;-55
2023/09/17 11:02:34;;;;;;;6.50;4.20;;;;;;;33.03;25.01;100267.29;109543;1251;59012;-56
2023/09/17 11:05:04;;;;;;;6.50;4.70;;;;;;;33.23;24.59;100263.50;109178;1251;58988;-55
2023/09/17 11:07:31;;;;;;;4.80;3.90;;;;;;;33.04;24.83;100257.75;109531;1251;66094;-55
2023/09/17 11:10:01;;;;;;;6.40;4.70;;;;;;;32.11;25.34;100251.02;109634;1250;59065;-55
2023/09/17 11:12:29;;;;;;;5.30;4.50;;;;;;;31.64;25.81;100248.33;109685;1250;62717;-56